Weather at Datadawai Airport

Public forecast

Using degrees Celsius for public forecast. Weather courtesy of forecast.io.

Closest aviation weather report (METAR) to Datadawai Airport

Report is more than 6 hours old.

Closest report is Kapit Airport, 120.0 nm (222.3 km) NW. Retrieved 2021/02/25 08:00 UTC (9 months ago):

WBGP 250800Z VRB03KT 9999 FEW017 33/21 Q1005

Closest aviation forecast (TAF) to Datadawai Airport

Closest forecast is Sibu Airport, 175.9 nm (325.7 km) WNW. Retrieved 2021/11/26 18:00 UTC (6 hours ago):

TAF WBGS 261700Z 2618/2718 20005KT 9999 SCT018 TEMPO 2618/2622 5000 RA FEW007 SCT016 TEMPO 2711/2714 30006KT 3000 TSRA FEW015CB SCT016 TEMPO 2714/2718 4000 RA SCT016